Upperco, Maryland
Current Conditions -  °F | °C
As of 7:25 PM on Monday 20 Oct 2014 (Local Time) from KDMW Reporting Station
Scattered Clouds Scattered Clouds  
Wind Chill: 55°   Ceiling: Unl
Heat Index: 55°   Visibility: 10mi
Dew Point: 46°   Wind: 0mph
Humidity: 72%   Direction: NA
Pressure: 29.95"   Gusts: NA
Location:  39.56°N, 76.84°W
Report Text: KDMW 202325Z AUTO 00000KT 10SM SCT085 13/08 A2995 RMK AO2
Loading
Personal Weather Stations






























Interactive Weather Map
Tropical Storm Tracking
New forecast layout! Learn more

10-Day Weather Forecast

Advertisements
Track Severe Weather on mobile